createdAt,value
2022-09-23T00:01:19.216Z,13.10
2022-09-23T00:06:25.425Z,13.06
2022-09-23T00:11:30.308Z,13.04
2022-09-23T00:16:35.818Z,13.02
2022-09-23T00:21:40.847Z,12.97
2022-09-23T00:26:44.607Z,12.98
2022-09-23T00:31:48.319Z,12.94
2022-09-23T00:36:53.305Z,12.90
2022-09-23T00:41:57.139Z,12.81
2022-09-23T00:47:00.957Z,12.72
2022-09-23T00:52:12.331Z,12.64
2022-09-23T00:57:17.960Z,12.54
2022-09-23T01:02:22.227Z,12.48
2022-09-23T01:07:27.353Z,12.51
2022-09-23T01:12:51.127Z,12.44
2022-09-23T01:18:05.308Z,12.36
2022-09-23T01:23:28.774Z,12.30
2022-09-23T01:28:54.286Z,12.21
2022-09-23T01:34:03.239Z,12.13
2022-09-23T01:39:14.154Z,12.06
2022-09-23T01:44:22.887Z,12.05
2022-09-23T01:49:33.629Z,12.00
2022-09-23T01:54:40.924Z,11.93
2022-09-23T01:59:48.964Z,11.91
2022-09-23T02:05:01.792Z,11.86
2022-09-23T02:10:12.370Z,11.82
2022-09-23T02:15:19.460Z,11.80
2022-09-23T02:20:29.147Z,11.76
2022-09-23T02:25:41.309Z,11.72
2022-09-23T02:30:49.994Z,11.67
2022-09-23T02:36:01.149Z,11.67
2022-09-23T02:41:10.894Z,11.58
2022-09-23T02:46:14.688Z,11.50
2022-09-23T02:51:20.220Z,11.46
2022-09-23T02:56:23.920Z,11.41
2022-09-23T03:01:40.088Z,11.36
2022-09-23T03:06:57.723Z,11.29
2022-09-23T03:12:13.250Z,11.20
2022-09-23T03:17:26.774Z,11.13
2022-09-23T03:22:36.387Z,11.06
2022-09-23T03:27:42.469Z,11.00
2022-09-23T03:32:47.821Z,10.95
2022-09-23T03:37:58.255Z,11.01
2022-09-23T03:43:03.461Z,11.05
2022-09-23T03:48:07.867Z,11.12
2022-09-23T03:53:14.211Z,11.05
2022-09-23T03:58:17.899Z,11.11
2022-09-23T04:03:22.351Z,11.15
2022-09-23T04:08:27.572Z,11.11
2022-09-23T04:13:31.573Z,11.13
2022-09-23T04:18:35.227Z,11.18
2022-09-23T04:23:40.315Z,11.20
2022-09-23T04:28:43.983Z,11.20
2022-09-23T04:33:47.656Z,11.15
2022-09-23T04:38:52.893Z,11.23
2022-09-23T04:43:57.462Z,11.20
2022-09-23T04:49:01.157Z,11.25
2022-09-23T04:54:06.283Z,11.24
2022-09-23T04:59:10.107Z,11.23
2022-09-23T05:04:14.854Z,11.25
2022-09-23T05:09:19.907Z,11.21
2022-09-23T05:14:23.679Z,11.23
2022-09-23T05:19:27.380Z,11.23
2022-09-23T05:24:32.375Z,11.20
2022-09-23T05:29:36.160Z,11.21
2022-09-23T05:34:40.136Z,11.21
2022-09-23T05:39:45.178Z,11.26
2022-09-23T05:44:48.877Z,11.28
2022-09-23T05:50:00.677Z,11.28
2022-09-23T05:55:07.226Z,11.27
2022-09-23T06:00:13.483Z,11.30
2022-09-23T06:05:17.295Z,11.27
2022-09-23T06:10:22.308Z,11.31
2022-09-23T06:15:26.314Z,11.42
2022-09-23T06:20:30.005Z,11.44
2022-09-23T06:25:36.168Z,11.45
2022-09-23T06:30:40.575Z,11.48
2022-09-23T06:35:54.332Z,11.47
2022-09-23T06:41:03.122Z,11.52
2022-09-23T06:46:08.416Z,11.54
2022-09-23T06:51:19.131Z,11.63
2022-09-23T06:56:24.815Z,11.70
2022-09-23T07:01:28.612Z,11.77
2022-09-23T07:06:32.398Z,11.87
2022-09-23T07:11:37.665Z,11.94
2022-09-23T07:16:41.768Z,12.08
2022-09-23T07:21:45.588Z,12.21
2022-09-23T07:26:50.953Z,12.25
2022-09-23T07:32:00.700Z,12.37
2022-09-23T07:37:10.702Z,12.55
2022-09-23T07:42:15.850Z,12.68
2022-09-23T07:47:20.124Z,12.79
2022-09-23T07:52:24.248Z,12.92
2022-09-23T07:57:29.273Z,13.02
2022-09-23T08:02:32.994Z,13.13
2022-09-23T08:07:37.029Z,13.10
2022-09-23T08:12:42.139Z,13.32
2022-09-23T08:17:46.306Z,13.42
2022-09-23T08:22:51.800Z,13.64
2022-09-23T08:27:57.108Z,13.86
2022-09-23T08:33:00.818Z,14.09
2022-09-23T08:38:04.759Z,14.43
2022-09-23T08:43:18.072Z,14.71
2022-09-23T08:48:30.579Z,14.92
2022-09-23T08:53:36.185Z,15.09
2022-09-23T08:58:51.931Z,15.24
2022-09-23T09:03:57.853Z,15.45
2022-09-23T09:09:03.755Z,15.47
2022-09-23T09:14:22.435Z,15.71
2022-09-23T09:19:55.355Z,15.89
2022-09-23T09:25:05.506Z,16.04
2022-09-23T09:30:13.484Z,16.05
2022-09-23T09:35:28.089Z,16.01
2022-09-23T09:40:32.056Z,16.15
2022-09-23T09:45:57.573Z,16.30
2022-09-23T09:51:19.771Z,16.50
2022-09-23T09:56:31.187Z,16.85
2022-09-23T10:01:36.596Z,16.75
2022-09-23T10:06:41.840Z,16.98
2022-09-23T10:12:04.601Z,17.45
2022-09-23T10:17:18.844Z,17.60
2022-09-23T10:22:29.857Z,18.03
2022-09-23T10:27:36.485Z,18.08
2022-09-23T10:32:45.870Z,18.51
2022-09-23T10:37:52.651Z,18.47
2022-09-23T10:43:21.781Z,18.74
2022-09-23T10:48:41.955Z,18.92
2022-09-23T10:53:54.643Z,18.94
2022-09-23T10:59:09.673Z,19.16
2022-09-23T11:04:29.446Z,19.45
2022-09-23T11:09:41.223Z,19.64
2022-09-23T11:15:02.409Z,19.59
2022-09-23T11:20:31.688Z,19.77
2022-09-23T11:25:48.229Z,20.09
2022-09-23T11:31:02.013Z,20.69
2022-09-23T11:36:10.120Z,20.56
2022-09-23T11:41:19.473Z,21.01
2022-09-23T11:46:34.083Z,20.96
2022-09-23T11:51:45.937Z,21.29
2022-09-23T11:56:54.441Z,21.05
2022-09-23T12:02:15.282Z,20.84
2022-09-23T12:07:27.820Z,20.58
2022-09-23T12:12:40.450Z,20.26
2022-09-23T12:17:59.308Z,20.34
2022-09-23T12:23:19.071Z,20.25
2022-09-23T12:28:26.951Z,20.01
2022-09-23T12:33:33.167Z,20.09
2022-09-23T12:38:41.233Z,19.80
2022-09-23T12:43:54.947Z,20.07
2022-09-23T12:49:03.719Z,20.21
2022-09-23T12:54:24.324Z,20.21
2022-09-23T12:59:31.172Z,19.92
2022-09-23T13:05:03.602Z,19.91
2022-09-23T13:10:16.825Z,19.61
2022-09-23T13:15:29.759Z,19.09
2022-09-23T13:20:38.383Z,19.27
2022-09-23T13:25:44.599Z,19.31
2022-09-23T13:30:52.060Z,19.37
2022-09-23T13:36:01.070Z,19.48
2022-09-23T13:41:12.420Z,19.69
2022-09-23T13:46:19.133Z,19.63
2022-09-23T13:51:25.846Z,19.48
2022-09-23T13:56:32.751Z,19.41
2022-09-23T14:01:37.025Z,19.23
2022-09-23T14:06:42.437Z,19.40
2022-09-23T14:11:47.699Z,19.45
2022-09-23T14:16:52.865Z,19.37
2022-09-23T14:21:57.523Z,19.29
2022-09-23T14:27:14.353Z,19.15
2022-09-23T14:32:21.736Z,19.21
2022-09-23T14:37:47.643Z,18.93
2022-09-23T14:42:58.138Z,18.87
2022-09-23T14:48:09.769Z,18.90
2022-09-23T14:53:36.772Z,18.99
2022-09-23T14:58:51.966Z,18.97
2022-09-23T15:03:57.380Z,18.79
2022-09-23T15:09:01.151Z,18.46
2022-09-23T15:14:33.241Z,18.21
2022-09-23T15:19:31.548Z,18.55
2022-09-23T15:24:38.918Z,18.59
2022-09-23T15:29:43.993Z,18.51
2022-09-23T15:34:50.605Z,18.49
2022-09-23T15:39:54.264Z,18.37
2022-09-23T15:45:00.359Z,18.35
2022-09-23T15:50:07.201Z,18.32
2022-09-23T15:55:16.510Z,18.24
2022-09-23T16:00:21.940Z,18.19
2022-09-23T16:05:33.049Z,18.09
2022-09-23T16:10:37.168Z,18.01
2022-09-23T16:15:42.836Z,18.00
2022-09-23T16:20:47.798Z,18.02
2022-09-23T16:25:51.621Z,17.93
2022-09-23T16:30:56.712Z,17.89
2022-09-23T16:36:01.853Z,17.83
2022-09-23T16:41:06.964Z,17.79
2022-09-23T16:46:14.324Z,17.75
2022-09-23T16:51:20.543Z,17.70
2022-09-23T16:56:28.854Z,17.65
2022-09-23T17:01:52.334Z,17.62
2022-09-23T17:06:56.680Z,17.58
2022-09-23T17:12:10.524Z,17.50
2022-09-23T17:17:15.682Z,17.44
2022-09-23T17:22:19.384Z,17.36
2022-09-23T17:27:24.953Z,17.32
2022-09-23T17:32:30.179Z,17.29
2022-09-23T17:37:33.962Z,17.20
2022-09-23T17:42:42.102Z,16.99
2022-09-23T17:47:54.796Z,17.00
2022-09-23T17:53:00.086Z,16.85
2022-09-23T17:58:03.858Z,16.71
2022-09-23T18:03:08.892Z,16.54
2022-09-23T18:08:12.768Z,16.16
2022-09-23T18:13:16.569Z,15.88
2022-09-23T18:18:21.608Z,15.87
2022-09-23T18:23:26.193Z,15.92
2022-09-23T18:28:34.085Z,15.88
2022-09-23T18:33:39.968Z,15.87
2022-09-23T18:38:43.794Z,15.92
2022-09-23T18:43:48.834Z,15.86
2022-09-23T18:49:12.240Z,15.84
2022-09-23T18:54:16.250Z,15.83
2022-09-23T18:59:23.854Z,15.83
2022-09-23T19:04:29.010Z,15.75
2022-09-23T19:09:32.786Z,15.73
2022-09-23T19:14:36.432Z,15.63
2022-09-23T19:19:42.045Z,15.62
2022-09-23T19:24:45.796Z,15.58
2022-09-23T19:29:50.338Z,15.63
2022-09-23T19:34:55.355Z,15.58
2022-09-23T19:39:59.069Z,15.62
2022-09-23T19:45:02.977Z,15.53
2022-09-23T19:50:09.310Z,15.54
2022-09-23T19:55:13.473Z,15.48
2022-09-23T20:00:17.263Z,15.44
2022-09-23T20:05:23.274Z,15.41
2022-09-23T20:10:27.222Z,15.37
2022-09-23T20:15:30.988Z,15.37
2022-09-23T20:20:36.070Z,15.30
2022-09-23T20:25:57.464Z,15.31
2022-09-23T20:31:01.307Z,15.26
2022-09-23T20:36:07.875Z,15.23
2022-09-23T20:41:12.029Z,15.13
2022-09-23T20:46:16.383Z,15.12
2022-09-23T20:51:21.491Z,15.04
2022-09-23T20:56:25.298Z,15.02
2022-09-23T21:01:29.639Z,15.04
2022-09-23T21:06:35.655Z,15.01
2022-09-23T21:11:39.433Z,14.98
2022-09-23T21:16:43.157Z,14.86
2022-09-23T21:21:48.358Z,14.89
2022-09-23T21:26:52.034Z,14.79
2022-09-23T21:31:55.774Z,14.83
2022-09-23T21:37:00.960Z,14.84
2022-09-23T21:42:05.932Z,14.77
2022-09-23T21:47:09.687Z,14.77
2022-09-23T21:52:14.780Z,14.71
2022-09-23T21:57:18.475Z,14.69
2022-09-23T22:02:23.384Z,14.68
2022-09-23T22:07:28.533Z,14.67
2022-09-23T22:12:32.556Z,14.39
2022-09-23T22:17:36.236Z,14.39
2022-09-23T22:22:41.237Z,14.37
2022-09-23T22:27:58.896Z,14.27
2022-09-23T22:33:09.067Z,14.24
2022-09-23T22:38:14.086Z,14.26
2022-09-23T22:43:18.591Z,14.24
2022-09-23T22:48:22.222Z,14.24
2022-09-23T22:53:29.114Z,14.23
2022-09-23T22:58:33.062Z,14.03
2022-09-23T23:03:37.205Z,14.21
2022-09-23T23:08:42.280Z,14.23
2022-09-23T23:13:46.113Z,14.23
2022-09-23T23:18:49.868Z,13.98
2022-09-23T23:23:54.872Z,14.14
2022-09-23T23:28:59.077Z,14.02
2022-09-23T23:34:02.735Z,14.08
2022-09-23T23:39:08.394Z,13.99
2022-09-23T23:44:13.318Z,13.94
2022-09-23T23:49:17.003Z,13.92
2022-09-23T23:54:22.067Z,13.96
2022-09-23T23:59:28.241Z,13.98
